.
WxDataArchive / Data Records for 2013-12-21
2013-12-20 December 2013 2013-12-22

Data Records for Saturday, 21 December 2013

Time	Temp	Chill	HIndex	Humid	Dewpt	 Wind 	HiWind	WindDir	Rain 	Barom 
-----	----	-----	------	-----	-----	------	------	-------	-----	----- 
00:00	53.9	53.9	53.9	96	52.8	1	5	248	0.00	29.705 
00:05	53.8	53.8	53.8	96	52.7	0	1	248	0.00	29.705 
00:10	53.6	53.6	53.6	96	52.5	1	6	248	0.00	29.705 
00:15	53.3	53.3	53.3	96	52.2	1	6	248	0.00	29.709 
00:20	53.3	53.3	53.3	96	52.2	1	6	225	0.00	29.709 
00:25	53.2	53.2	53.2	96	52.1	2	5	248	0.00	29.709 
00:30	53.2	53.2	53.2	95	51.8	1	4	248	0.00	29.707 
00:35	53.1	53.1	53.1	95	51.7	2	4	248	0.00	29.707 
00:40	52.9	52.9	52.9	94	51.2	1	3	248	0.00	29.707 
00:45	52.5	52.5	52.5	93	50.5	2	6	248	0.00	29.721 
00:50	51.7	51.7	51.7	92	49.5	3	7	270	0.00	29.721 
00:55	51.3	51.3	51.3	91	48.8	3	6	270	0.00	29.721 
01:00	50.7	50.7	50.7	90	47.9	2	5	292	0.00	29.723 
01:05	49.6	49.6	49.6	90	46.8	3	5	270	0.00	29.723 
01:10	48.8	48.8	48.8	90	46.0	2	5	292	0.00	29.723 
01:15	48.2	48.2	48.2	90	45.4	2	5	248	0.00	29.735 
01:20	47.7	47.7	47.7	90	44.9	1	5	270	0.00	29.735 
01:25	47.4	47.4	47.4	90	44.6	1	5	270	0.00	29.735 
01:30	47.1	47.1	47.1	90	44.3	0	2	270	0.00	29.730 
01:35	46.8	46.8	46.8	90	44.0	1	3	270	0.00	29.730 
01:40	46.5	46.5	46.5	90	43.7	0	2	270	0.00	29.730 
01:45	46.4	46.4	46.4	90	43.6	1	2	270	0.00	29.728 
01:50	46.1	46.1	46.1	90	43.3	1	3	270	0.00	29.728 
01:55	45.8	45.8	45.8	89	42.7	2	4	270	0.00	29.728 
02:00	45.5	45.5	45.5	89	42.4	1	4	270	0.00	29.732 
02:05	45.4	45.4	45.4	89	42.3	2	5	248	0.00	29.732 
02:10	45.1	45.1	45.1	89	42.1	2	4	248	0.00	29.732 
02:15	44.9	44.9	44.9	90	42.1	2	4	248	0.00	29.745 
02:20	44.8	44.8	44.8	90	42.0	1	3	248	0.00	29.745 
02:25	44.6	44.6	44.6	90	41.9	1	3	248	0.00	29.745 
02:30	44.5	44.5	44.5	90	41.8	0	2	248	0.00	29.740 
02:35	44.3	44.3	44.3	90	41.6	0	2	248	0.01	29.740 
02:40	44.2	44.2	44.2	91	41.7	0	3	248	0.00	29.740 
02:45	44.1	44.1	44.1	91	41.6	0	1	248	0.00	29.736 
02:50	43.8	43.8	43.8	91	41.3	0	2	248	0.00	29.736 
02:55	43.6	43.6	43.6	92	41.4	1	2	248	0.01	29.736 
03:00	43.3	43.3	43.3	92	41.1	1	4	248	0.00	29.775 
03:05	43.1	43.1	43.1	92	40.9	1	3	248	0.03	29.775 
03:10	42.8	42.8	42.8	92	40.6	0	2	248	0.01	29.775 
03:15	42.5	42.5	42.5	92	40.3	1	3	248	0.01	29.763 
03:20	42.2	42.2	42.2	92	40.0	1	3	248	0.01	29.763 
03:25	41.9	41.9	41.9	92	39.7	1	3	248	0.00	29.763 
03:30	41.8	41.8	41.8	93	39.9	0	3	248	0.01	29.766 
03:35	41.6	41.6	41.6	93	39.7	0	2	248	0.00	29.766 
03:40	41.5	41.5	41.5	93	39.6	0	1	248	0.00	29.766 
03:45	41.3	41.3	41.3	93	39.4	0	2	248	0.01	29.762 
03:50	41.2	41.2	41.2	93	39.3	0	3	248	0.00	29.762 
03:55	41.1	41.1	41.1	93	39.2	0	1	248	0.00	29.762 
04:00	40.9	40.9	40.9	93	39.0	0	1	248	0.00	29.742 
04:05	40.8	40.8	40.8	93	38.9	0	1	248	0.01	29.742 
04:10	40.8	40.8	40.8	94	39.2	0	1	248	0.00	29.742 
04:15	40.6	40.6	40.6	94	39.0	0	1	248	0.00	29.748 
04:20	40.6	40.6	40.6	94	39.0	0	1	248	0.01	29.748 
04:25	40.5	40.5	40.5	94	38.9	0	1	248	0.00	29.748 
04:30	40.5	40.5	40.5	94	38.9	1	3	248	0.00	29.772 
04:35	40.2	40.2	40.2	94	38.6	0	3	248	0.01	29.772 
04:40	40.1	40.1	40.1	94	38.5	0	2	248	0.01	29.772 
04:45	39.9	39.9	39.9	94	38.3	1	3	248	0.01	29.778 
04:50	39.6	39.6	39.6	94	38.0	1	4	248	0.00	29.778 
04:55	39.5	39.5	39.5	94	37.9	1	3	248	0.01	29.778 
05:00	39.3	39.3	39.3	94	37.7	1	4	248	0.00	29.777 
05:05	39.2	39.2	39.2	94	37.6	0	2	248	0.00	29.777 
05:10	39.2	39.2	39.2	94	37.6	0	1	248	0.00	29.777 
05:15	39.2	39.2	39.2	94	37.6	0	3	248	0.01	29.780 
05:20	39.1	39.1	39.1	94	37.5	1	3	248	0.00	29.780 
05:25	39.1	39.1	39.1	94	37.5	0	2	248	0.00	29.780 
05:30	38.9	38.9	38.9	94	37.3	0	2	248	0.00	29.778 
05:35	38.8	38.8	38.8	94	37.2	1	5	248	0.00	29.778 
05:40	38.6	38.6	38.6	94	37.0	0	2	315	0.00	29.778 
05:45	38.5	38.5	38.5	94	36.9	0	2	315	0.00	29.742 
05:50	38.3	38.3	38.3	94	36.7	0	1	315	0.00	29.742 
05:55	38.3	38.3	38.3	94	36.7	0	0	---	0.00	29.742 
06:00	38.3	38.3	38.3	94	36.7	0	0	---	0.00	29.750 
06:05	38.3	38.3	38.3	95	37.0	0	1	315	0.00	29.750 
06:10	38.3	38.3	38.3	95	37.0	0	1	315	0.01	29.750 
06:15	38.2	38.2	38.2	94	36.6	0	1	315	0.00	29.762 
06:20	38.2	38.2	38.2	95	36.9	0	1	315	0.00	29.762 
06:25	38.0	38.0	38.0	95	36.7	0	1	315	0.01	29.762 
06:30	38.0	38.0	38.0	95	36.7	0	1	315	0.00	29.776 
06:35	37.8	37.8	37.8	95	36.5	0	3	315	0.01	29.776 
06:40	37.6	37.6	37.6	95	36.3	0	2	315	0.00	29.776 
06:45	37.6	37.6	37.6	95	36.3	0	1	315	0.00	29.793 
06:50	37.6	37.6	37.6	95	36.3	0	2	315	0.00	29.793 
06:55	37.5	37.5	37.5	95	36.2	0	2	315	0.00	29.793 
07:00	37.5	37.5	37.5	95	36.2	0	2	315	0.01	29.779 
07:05	37.3	37.3	37.3	95	36.0	0	3	292	0.00	29.779 
07:10	37.2	37.2	37.2	95	35.9	0	2	292	0.01	29.779 
07:15	37.0	37.0	37.0	95	35.7	0	3	292	0.00	29.778 
07:20	36.9	36.9	36.9	95	35.6	0	1	292	0.00	29.778 
07:25	36.9	36.9	36.9	95	35.6	0	1	292	0.01	29.778 
07:30	36.8	36.8	36.8	95	35.5	0	1	292	0.00	29.778 
07:35	36.8	36.8	36.8	95	35.5	0	0	---	0.00	29.778 
07:40	36.6	36.6	36.6	95	35.3	0	1	292	0.00	29.778 
07:45	36.6	36.6	36.6	95	35.3	0	1	292	0.01	29.773 
07:50	36.5	36.5	36.5	95	35.2	0	1	292	0.00	29.773 
07:55	36.5	36.5	36.5	95	35.2	0	0	---	0.00	29.773 
08:00	36.5	36.5	36.5	95	35.2	0	0	---	0.00	29.780 
08:05	36.5	36.5	36.5	95	35.2	0	0	---	0.01	29.780 
08:10	36.5	36.5	36.5	95	35.2	0	0	---	0.01	29.780 
08:15	36.5	36.5	36.5	95	35.2	0	1	292	0.00	29.789 
08:20	36.5	36.5	36.5	95	35.2	0	0	---	0.01	29.789 
08:25	36.5	36.5	36.5	95	35.2	0	0	---	0.00	29.789 
08:30	36.5	36.5	36.5	95	35.2	0	1	292	0.01	29.796 
08:35	36.5	36.5	36.5	95	35.2	0	1	292	0.00	29.796 
08:40	36.3	36.3	36.3	95	35.0	0	1	292	0.00	29.796 
08:45	36.3	36.3	36.3	95	35.0	0	1	292	0.01	29.806 
08:50	36.3	36.3	36.3	95	35.0	0	0	---	0.00	29.806 
08:55	36.3	36.3	36.3	95	35.0	0	1	292	0.01	29.806 
09:00	36.3	36.3	36.3	95	35.0	0	2	292	0.00	29.811 
09:05	36.3	36.3	36.3	95	35.0	0	1	292	0.01	29.811 
09:10	36.3	36.3	36.3	95	35.0	0	2	292	0.01	29.811 
09:15	36.3	36.3	36.3	95	35.0	0	3	292	0.00	29.814 
09:20	36.2	36.2	36.2	95	34.9	0	2	292	0.01	29.814 
09:25	36.2	36.2	36.2	95	34.9	0	1	292	0.01	29.814 
09:30	36.2	36.2	36.2	95	34.9	0	1	292	0.00	29.816 
09:35	36.2	36.2	36.2	95	34.9	0	1	292	0.00	29.816 
09:40	36.2	36.2	36.2	95	34.9	0	0	---	0.01	29.816 
09:45	36.2	36.2	36.2	95	34.9	0	0	---	0.01	29.816 
09:50	36.3	36.3	36.3	95	35.0	0	0	---	0.00	29.816 
09:55	36.3	36.3	36.3	95	35.0	0	0	---	0.00	29.816 
10:00	36.3	36.3	36.3	95	35.0	0	0	---	0.00	29.814 
10:05	36.3	36.3	36.3	95	35.0	0	1	292	0.00	29.814 
10:10	36.3	36.3	36.3	95	35.0	0	0	---	0.01	29.814 
10:15	36.3	36.3	36.3	95	35.0	0	1	292	0.00	29.813 
10:20	36.3	36.3	36.3	95	35.0	0	1	292	0.00	29.813 
10:25	36.3	36.3	36.3	95	35.0	0	1	292	0.01	29.813 
10:30	36.3	36.3	36.3	95	35.0	0	2	292	0.00	29.810 
10:35	36.3	36.3	36.3	95	35.0	0	3	292	0.00	29.810 
10:40	36.3	36.3	36.3	95	35.0	0	2	292	0.00	29.810 
10:45	36.3	36.3	36.3	95	35.0	1	3	292	0.00	29.793 
10:50	36.3	36.3	36.3	95	35.0	1	3	292	0.01	29.793 
10:55	36.3	36.3	36.3	95	35.0	1	2	292	0.00	29.793 
11:00	36.3	36.3	36.3	95	35.0	1	3	292	0.01	29.781 
11:05	36.3	36.3	36.3	95	35.0	1	3	292	0.00	29.781 
11:10	36.5	36.5	36.5	95	35.2	1	4	292	0.00	29.781 
11:15	36.5	36.5	36.5	95	35.2	1	3	90	0.00	29.778 
11:20	36.5	36.5	36.5	95	35.2	1	4	90	0.00	29.778 
11:25	36.5	36.5	36.5	95	35.2	2	4	90	0.00	29.778 
11:30	36.5	36.5	36.5	95	35.2	2	5	90	0.00	29.762 
11:35	36.6	36.6	36.6	95	35.3	2	4	90	0.00	29.762 
11:40	36.6	36.6	36.6	95	35.3	2	5	90	0.00	29.762 
11:45	36.6	36.6	36.6	95	35.3	1	5	90	0.00	29.756 
11:50	36.6	36.6	36.6	95	35.3	1	4	90	0.00	29.756 
11:55	36.6	36.6	36.6	95	35.3	1	3	90	0.00	29.756 
12:00	36.8	36.8	36.8	95	35.5	0	1	90	0.00	29.765 
12:05	36.9	36.9	36.9	95	35.6	0	1	90	0.00	29.765 
12:10	36.9	36.9	36.9	95	35.6	0	2	90	0.00	29.765 
12:15	36.9	36.9	36.9	95	35.6	1	3	90	0.00	29.761 
12:20	36.9	36.9	36.9	95	35.6	0	2	90	0.00	29.761 
12:25	36.9	36.9	36.9	95	35.6	0	1	90	0.00	29.761 
12:30	36.9	36.9	36.9	95	35.6	0	2	90	0.00	29.762 
12:35	36.9	36.9	36.9	95	35.6	0	1	90	0.00	29.762 
12:40	36.9	36.9	36.9	95	35.6	1	4	90	0.00	29.762 
12:45	36.9	36.9	36.9	95	35.6	1	5	90	0.00	29.748 
12:50	36.9	36.9	36.9	95	35.6	0	1	90	0.00	29.748 
12:55	37.0	37.0	37.0	95	35.7	0	2	90	0.00	29.748 
13:00	37.0	37.0	37.0	95	35.7	0	2	90	0.00	29.748 
13:05	37.0	37.0	37.0	95	35.7	0	2	90	0.00	29.748 
13:10	37.0	37.0	37.0	95	35.7	0	2	90	0.01	29.748 
13:15	37.0	37.0	37.0	95	35.7	0	1	90	0.00	29.755 
13:20	37.0	37.0	37.0	95	35.7	0	2	90	0.01	29.755 
13:25	36.9	36.9	36.9	95	35.6	0	1	90	0.00	29.755 
13:30	36.9	36.9	36.9	92	34.8	0	3	90	0.01	29.770 
13:35	36.9	36.9	36.9	95	35.6	0	3	90	0.01	29.770 
13:40	36.9	36.9	36.9	95	35.6	0	2	90	0.01	29.770 
13:45	37.0	37.0	37.0	95	35.7	0	1	90	0.01	29.768 
13:50	37.0	37.0	37.0	95	35.7	0	1	90	0.00	29.768 
13:55	37.0	37.0	37.0	95	35.7	0	1	90	0.01	29.768 
14:00	37.0	37.0	37.0	95	35.7	0	1	90	0.01	29.759 
14:05	37.0	37.0	37.0	95	35.7	0	1	90	0.00	29.759 
14:10	37.0	37.0	37.0	95	35.7	0	3	90	0.00	29.759 
14:15	37.0	37.0	37.0	95	35.7	1	4	90	0.01	29.757 
14:20	37.0	37.0	37.0	95	35.7	0	3	90	0.01	29.757 
14:25	36.9	36.9	36.9	95	35.6	0	2	90	0.00	29.757 
14:30	36.9	36.9	36.9	95	35.6	0	3	90	0.01	29.750 
14:35	36.9	36.9	36.9	95	35.6	0	2	90	0.00	29.750 
14:40	36.9	36.9	36.9	95	35.6	0	3	90	0.01	29.750 
14:45	36.9	36.9	36.9	95	35.6	0	3	90	0.00	29.741 
14:50	36.9	36.9	36.9	95	35.6	1	5	90	0.00	29.741 
14:55	36.8	36.8	36.8	95	35.5	1	4	90	0.01	29.741 
15:00	36.8	36.8	36.8	95	35.5	0	2	90	0.00	29.744 
15:05	36.6	36.6	36.6	95	35.3	1	3	90	0.01	29.744 
15:10	36.5	36.5	36.5	95	35.2	1	4	90	0.00	29.744 
15:15	36.5	36.5	36.5	95	35.2	0	3	90	0.00	29.744 
15:20	36.5	36.5	36.5	95	35.2	0	3	68	0.01	29.744 
15:25	36.5	36.5	36.5	95	35.2	0	3	22	0.01	29.744 
15:30	36.3	36.3	36.3	95	35.0	1	3	45	0.00	29.754 
15:35	36.3	36.3	36.3	95	35.0	0	2	45	0.01	29.754 
15:40	36.3	36.3	36.3	95	35.0	0	2	68	0.00	29.754 
15:45	36.3	36.3	36.3	95	35.0	1	4	112	0.01	29.758 
15:50	36.2	36.2	36.2	95	34.9	1	3	112	0.00	29.758 
15:55	36.2	36.2	36.2	95	34.9	0	2	112	0.01	29.758 
16:00	36.2	36.2	36.2	95	34.9	1	4	112	0.01	29.760 
16:05	36.2	36.2	36.2	95	34.9	1	4	90	0.00	29.760 
16:10	36.0	36.0	36.0	95	34.7	2	5	112	0.01	29.760 
16:15	36.0	36.0	36.0	95	34.7	1	5	112	0.01	29.756 
16:20	35.9	35.9	35.9	95	34.6	1	4	112	0.00	29.756 
16:25	35.9	35.9	35.9	95	34.6	3	9	112	0.00	29.756 
16:30	35.8	35.8	35.8	95	34.5	1	10	90	0.01	29.759 
16:35	35.8	35.8	35.8	95	34.5	2	5	90	0.00	29.759 
16:40	35.6	35.6	35.6	95	34.3	3	9	112	0.01	29.759 
16:45	35.5	35.5	35.5	95	34.2	3	10	112	0.00	29.744 
16:50	35.5	35.5	35.5	95	34.2	2	5	90	0.00	29.744 
16:55	35.5	35.5	35.5	95	34.2	3	9	90	0.00	29.744 
17:00	35.3	35.3	35.3	95	34.0	3	10	112	0.01	29.743 
17:05	35.3	35.3	35.3	95	34.0	2	5	112	0.00	29.743 
17:10	35.3	35.3	35.3	95	34.0	3	6	112	0.00	29.743 
17:15	35.2	35.2	35.2	95	33.9	2	10	112	0.01	29.735 
17:20	35.2	35.2	35.2	95	33.9	3	8	90	0.00	29.735 
17:25	35.2	35.2	35.2	95	33.9	3	7	90	0.00	29.735 
17:30	35.2	35.2	35.2	95	33.9	2	7	90	0.00	29.729 
17:35	35.2	31.8	35.2	95	33.9	4	6	90	0.00	29.729 
17:40	35.2	31.8	35.2	95	33.9	4	9	112	0.01	29.729 
17:45	35.2	35.2	35.2	95	33.9	3	9	112	0.00	29.725 
17:50	35.2	31.8	35.2	95	33.9	4	11	112	0.01	29.725 
17:55	35.2	31.8	35.2	95	33.9	4	9	90	0.00	29.725 
18:00	35.2	31.8	35.2	95	33.9	4	10	90	0.00	29.722 
18:05	35.2	35.2	35.2	95	33.9	3	10	112	0.00	29.722 
18:10	35.2	31.8	35.2	95	33.9	4	7	90	0.00	29.722 
18:15	35.2	35.2	35.2	95	33.9	2	5	112	0.00	29.729 
18:20	35.2	35.2	35.2	95	33.9	3	6	90	0.01	29.729 
18:25	35.3	35.3	35.3	95	34.0	2	7	90	0.00	29.729 
18:30	35.3	35.3	35.3	95	34.0	1	5	90	0.00	29.730 
18:35	35.3	35.3	35.3	95	34.0	1	5	90	0.01	29.730 
18:40	35.3	35.3	35.3	95	34.0	1	6	112	0.00	29.730 
18:45	35.3	35.3	35.3	95	34.0	2	7	90	0.01	29.728 
18:50	35.3	35.3	35.3	95	34.0	2	8	112	0.01	29.728 
18:55	35.3	35.3	35.3	95	34.0	1	6	112	0.01	29.728 
19:00	35.3	35.3	35.3	95	34.0	1	3	112	0.01	29.721 
19:05	35.3	35.3	35.3	95	34.0	1	6	90	0.01	29.721 
19:10	35.2	35.2	35.2	95	33.9	1	4	90	0.00	29.721 
19:15	35.2	35.2	35.2	95	33.9	2	11	90	0.01	29.719 
19:20	35.2	35.2	35.2	95	33.9	1	5	112	0.01	29.719 
19:25	35.2	35.2	35.2	95	33.9	1	5	112	0.01	29.719 
19:30	35.0	35.0	35.0	95	33.7	1	3	112	0.02	29.728 
19:35	35.0	35.0	35.0	95	33.7	1	5	90	0.00	29.728 
19:40	35.0	35.0	35.0	95	33.7	2	6	112	0.01	29.728 
19:45	35.0	35.0	35.0	96	34.0	2	7	90	0.02	29.725 
19:50	35.0	35.0	35.0	96	34.0	2	6	112	0.01	29.725 
19:55	35.0	35.0	35.0	96	34.0	3	7	112	0.02	29.725 
20:00	34.9	34.9	34.9	96	33.9	2	7	135	0.01	29.701 
20:05	34.9	34.9	34.9	96	33.9	1	4	112	0.01	29.701 
20:10	34.9	34.9	34.9	96	33.9	1	5	90	0.00	29.701 
20:15	34.9	34.9	34.9	96	33.9	1	6	68	0.01	29.699 
20:20	34.9	34.9	34.9	96	33.9	2	6	45	0.01	29.699 
20:25	34.7	34.7	34.7	96	33.7	0	3	315	0.00	29.699 
20:30	34.7	34.7	34.7	96	33.7	2	6	112	0.01	29.681 
20:35	34.7	34.7	34.7	96	33.7	3	9	112	0.01	29.681 
20:40	34.6	34.6	34.6	95	33.3	3	11	112	0.01	29.681 
20:45	34.6	34.6	34.6	95	33.3	3	10	112	0.00	29.660 
20:50	34.6	34.6	34.6	95	33.3	1	4	135	0.01	29.660 
20:55	34.4	34.4	34.4	95	33.1	2	6	112	0.00	29.660 
21:00	34.4	34.4	34.4	95	33.1	2	6	112	0.01	29.656 
21:05	34.3	34.3	34.3	95	33.0	2	6	22	0.01	29.656 
21:10	34.3	34.3	34.3	95	33.0	3	7	90	0.02	29.656 
21:15	34.3	34.3	34.3	95	33.0	2	10	112	0.01	29.644 
21:20	34.1	34.1	34.1	95	32.8	1	4	45	0.01	29.644 
21:25	34.1	34.1	34.1	95	32.8	1	5	68	0.00	29.644 
21:30	34.1	34.1	34.1	95	32.8	2	7	68	0.02	29.640 
21:35	34.0	34.0	34.0	95	32.7	2	10	90	0.01	29.640 
21:40	34.0	34.0	34.0	95	32.7	3	9	90	0.02	29.640 
21:45	34.0	30.4	34.0	95	32.7	4	14	90	0.01	29.625 
21:50	34.0	30.4	34.0	95	32.7	4	10	112	0.01	29.625 
21:55	34.0	29.4	34.0	95	32.7	5	13	90	0.01	29.625 
22:00	34.0	30.4	34.0	95	32.7	4	11	112	0.00	29.622 
22:05	34.0	34.0	34.0	95	32.7	3	11	90	0.01	29.622 
22:10	34.0	30.4	34.0	95	32.7	4	13	112	0.01	29.622 
22:15	34.0	30.4	34.0	95	32.7	4	11	90	0.00	29.618 
22:20	34.0	34.0	34.0	95	32.7	3	14	112	0.01	29.618 
22:25	34.0	30.4	34.0	95	32.7	4	12	90	0.01	29.618 
22:30	34.0	29.4	34.0	95	32.7	5	13	112	0.01	29.591 
22:35	33.8	28.4	33.8	95	32.5	6	15	90	0.00	29.591 
22:40	33.8	30.2	33.8	95	32.5	4	12	90	0.01	29.591 
22:45	33.8	28.4	33.8	95	32.5	6	13	112	0.01	29.573 
22:50	33.8	30.2	33.8	95	32.5	4	17	90	0.01	29.573 
22:55	33.7	33.7	33.7	95	32.4	3	11	90	0.01	29.573 
23:00	33.7	29.1	33.7	95	32.4	5	13	90	0.01	29.575 
23:05	33.7	30.0	33.7	95	32.4	4	19	112	0.01	29.575 
23:10	33.7	30.0	33.7	95	32.4	4	11	112	0.01	29.575 
23:15	33.5	27.3	33.5	95	32.2	7	15	112	0.01	29.545 
23:20	33.5	28.8	33.5	95	32.2	5	16	112	0.00	29.545 
23:25	33.7	33.7	33.7	95	32.4	1	5	135	0.01	29.545 
23:30	33.7	28.3	33.7	95	32.4	6	18	112	0.00	29.549 
23:35	33.7	33.7	33.7	95	32.4	2	10	112	0.01	29.549 
23:40	33.8	33.8	33.8	95	32.5	1	6	292	0.00	29.549 
23:45	33.8	29.2	33.8	95	32.5	5	14	112	0.00	29.532 
23:50	33.8	27.7	33.8	95	32.5	7	24	112	0.00	29.532 
23:55	33.8	33.8	33.8	95	32.5	3	15	90	0.00	29.532 

CoCoRaHS
IN-AL-39
A2 Web Hosting
Creative Commons License
GoDaddy
search engine by freefind advanced

loaded 2018-11-19 11:42:27 • last modified 2010-11-18 10:43:29
Privacy PolicyDisclaimer
• wx.awcolley.com is powered by PmWiki v.2002016 •
• all content (unless otherwise noted) © 2018 A W Colley